sensor_id;sensor_type;location;lat;lon;timestamp;P1;durP1;ratioP1;P2;durP2;ratioP2
39674;SDS011;27790;50.840;4.386;2023-06-14T00:02:12;14.35;;;5.32;;
39674;SDS011;27790;50.840;4.386;2023-06-14T00:04:38;5.97;;;4.53;;
39674;SDS011;27790;50.840;4.386;2023-06-14T00:07:06;7.22;;;4.95;;
39674;SDS011;27790;50.840;4.386;2023-06-14T00:09:35;7.10;;;5.00;;
39674;SDS011;27790;50.840;4.386;2023-06-14T00:12:01;8.77;;;5.32;;
39674;SDS011;27790;50.840;4.386;2023-06-14T00:14:26;10.85;;;6.13;;
39674;SDS011;27790;50.840;4.386;2023-06-14T00:16:52;7.13;;;5.03;;
39674;SDS011;27790;50.840;4.386;2023-06-14T00:19:18;7.45;;;5.25;;
39674;SDS011;27790;50.840;4.386;2023-06-14T00:21:44;7.57;;;5.93;;
39674;SDS011;27790;50.840;4.386;2023-06-14T00:24:10;6.63;;;5.28;;
39674;SDS011;27790;50.840;4.386;2023-06-14T00:26:36;9.70;;;5.20;;
39674;SDS011;27790;50.840;4.386;2023-06-14T00:29:02;11.98;;;5.20;;
39674;SDS011;27790;50.840;4.386;2023-06-14T00:31:27;8.07;;;5.40;;
39674;SDS011;27790;50.840;4.386;2023-06-14T00:33:53;11.13;;;5.55;;
39674;SDS011;27790;50.840;4.386;2023-06-14T00:36:19;8.25;;;4.93;;
39674;SDS011;27790;50.840;4.386;2023-06-14T00:38:45;7.57;;;5.10;;
39674;SDS011;27790;50.840;4.386;2023-06-14T00:41:10;10.50;;;4.95;;
39674;SDS011;27790;50.840;4.386;2023-06-14T00:43:36;5.93;;;4.80;;
39674;SDS011;27790;50.840;4.386;2023-06-14T00:46:02;8.98;;;5.70;;
39674;SDS011;27790;50.840;4.386;2023-06-14T00:48:28;7.30;;;5.55;;
39674;SDS011;27790;50.840;4.386;2023-06-14T00:50:54;5.90;;;4.93;;
39674;SDS011;27790;50.840;4.386;2023-06-14T00:53:20;11.38;;;4.95;;
39674;SDS011;27790;50.840;4.386;2023-06-14T00:55:48;8.25;;;5.47;;
39674;SDS011;27790;50.840;4.386;2023-06-14T00:58:13;9.98;;;4.80;;
39674;SDS011;27790;50.840;4.386;2023-06-14T01:00:39;9.45;;;5.28;;
39674;SDS011;27790;50.840;4.386;2023-06-14T01:03:05;9.27;;;5.05;;
39674;SDS011;27790;50.840;4.386;2023-06-14T01:05:31;8.98;;;5.68;;
39674;SDS011;27790;50.840;4.386;2023-06-14T01:16:03;9.40;;;6.10;;
39674;SDS011;27790;50.840;4.386;2023-06-14T01:18:31;10.57;;;5.97;;
39674;SDS011;27790;50.840;4.386;2023-06-14T01:20:58;10.23;;;5.65;;
39674;SDS011;27790;50.840;4.386;2023-06-14T01:23:24;6.75;;;5.43;;
39674;SDS011;27790;50.840;4.386;2023-06-14T01:25:57;7.30;;;5.43;;
39674;SDS011;27790;50.840;4.386;2023-06-14T01:28:24;11.65;;;5.95;;
39674;SDS011;27790;50.840;4.386;2023-06-14T01:30:52;7.57;;;5.35;;
39674;SDS011;27790;50.840;4.386;2023-06-14T01:33:24;9.90;;;5.70;;
39674;SDS011;27790;50.840;4.386;2023-06-14T01:35:52;7.47;;;5.22;;
39674;SDS011;27790;50.840;4.386;2023-06-14T01:38:19;8.10;;;5.32;;
39674;SDS011;27790;50.840;4.386;2023-06-14T01:40:47;11.02;;;5.95;;
39674;SDS011;27790;50.840;4.386;2023-06-14T01:43:14;7.65;;;5.68;;
39674;SDS011;27790;50.840;4.386;2023-06-14T01:45:44;6.80;;;5.43;;
39674;SDS011;27790;50.840;4.386;2023-06-14T01:48:12;14.30;;;5.95;;
39674;SDS011;27790;50.840;4.386;2023-06-14T01:50:38;7.75;;;5.20;;
39674;SDS011;27790;50.840;4.386;2023-06-14T01:53:07;9.02;;;6.28;;
39674;SDS011;27790;50.840;4.386;2023-06-14T01:55:33;11.65;;;5.85;;
39674;SDS011;27790;50.840;4.386;2023-06-14T01:58:02;10.32;;;5.80;;
39674;SDS011;27790;50.840;4.386;2023-06-14T02:00:28;10.85;;;6.50;;
39674;SDS011;27790;50.840;4.386;2023-06-14T02:02:54;8.60;;;6.15;;
39674;SDS011;27790;50.840;4.386;2023-06-14T02:05:19;9.27;;;5.82;;
39674;SDS011;27790;50.840;4.386;2023-06-14T02:07:45;8.75;;;6.50;;
39674;SDS011;27790;50.840;4.386;2023-06-14T02:10:11;7.57;;;5.97;;
39674;SDS011;27790;50.840;4.386;2023-06-14T02:12:37;11.52;;;6.05;;
39674;SDS011;27790;50.840;4.386;2023-06-14T02:15:02;8.98;;;6.05;;
39674;SDS011;27790;50.840;4.386;2023-06-14T02:17:29;9.25;;;6.63;;
39674;SDS011;27790;50.840;4.386;2023-06-14T02:19:55;9.65;;;6.57;;
39674;SDS011;27790;50.840;4.386;2023-06-14T02:22:22;9.38;;;5.97;;
39674;SDS011;27790;50.840;4.386;2023-06-14T02:24:47;11.07;;;6.50;;
39674;SDS011;27790;50.840;4.386;2023-06-14T02:27:13;8.35;;;6.05;;
39674;SDS011;27790;50.840;4.386;2023-06-14T02:29:39;8.25;;;6.63;;
39674;SDS011;27790;50.840;4.386;2023-06-14T02:32:05;10.07;;;6.53;;
39674;SDS011;27790;50.840;4.386;2023-06-14T02:34:32;10.05;;;6.40;;
39674;SDS011;27790;50.840;4.386;2023-06-14T02:36:58;10.70;;;6.43;;
39674;SDS011;27790;50.840;4.386;2023-06-14T02:39:24;16.58;;;7.45;;
39674;SDS011;27790;50.840;4.386;2023-06-14T02:41:50;12.60;;;6.97;;
39674;SDS011;27790;50.840;4.386;2023-06-14T02:44:17;10.85;;;7.32;;
39674;SDS011;27790;50.840;4.386;2023-06-14T02:46:44;11.23;;;6.65;;
39674;SDS011;27790;50.840;4.386;2023-06-14T02:49:10;8.77;;;6.85;;
39674;SDS011;27790;50.840;4.386;2023-06-14T02:51:36;9.98;;;6.32;;
39674;SDS011;27790;50.840;4.386;2023-06-14T02:54:02;13.90;;;7.03;;
39674;SDS011;27790;50.840;4.386;2023-06-14T02:56:28;10.27;;;6.50;;
39674;SDS011;27790;50.840;4.386;2023-06-14T02:58:54;7.53;;;6.72;;
39674;SDS011;27790;50.840;4.386;2023-06-14T03:01:20;11.93;;;6.75;;
39674;SDS011;27790;50.840;4.386;2023-06-14T03:03:46;13.60;;;7.95;;
39674;SDS011;27790;50.840;4.386;2023-06-14T03:06:12;13.27;;;7.72;;
39674;SDS011;27790;50.840;4.386;2023-06-14T03:08:39;13.85;;;6.90;;
39674;SDS011;27790;50.840;4.386;2023-06-14T03:11:06;8.05;;;7.10;;
39674;SDS011;27790;50.840;4.386;2023-06-14T03:13:32;14.30;;;7.45;;
39674;SDS011;27790;50.840;4.386;2023-06-14T03:15:59;8.93;;;6.63;;
39674;SDS011;27790;50.840;4.386;2023-06-14T03:18:27;12.90;;;7.80;;
39674;SDS011;27790;50.840;4.386;2023-06-14T03:20:55;7.40;;;6.70;;
39674;SDS011;27790;50.840;4.386;2023-06-14T03:23:22;7.38;;;6.68;;
39674;SDS011;27790;50.840;4.386;2023-06-14T03:25:48;10.00;;;6.72;;
39674;SDS011;27790;50.840;4.386;2023-06-14T03:28:14;8.10;;;7.28;;
39674;SDS011;27790;50.840;4.386;2023-06-14T03:30:39;8.60;;;6.68;;
39674;SDS011;27790;50.840;4.386;2023-06-14T03:33:05;11.10;;;7.80;;
39674;SDS011;27790;50.840;4.386;2023-06-14T03:35:31;12.63;;;7.43;;
39674;SDS011;27790;50.840;4.386;2023-06-14T03:37:56;8.80;;;6.95;;
39674;SDS011;27790;50.840;4.386;2023-06-14T03:40:22;16.30;;;7.80;;
39674;SDS011;27790;50.840;4.386;2023-06-14T03:42:51;10.18;;;7.07;;
39674;SDS011;27790;50.840;4.386;2023-06-14T03:45:17;12.95;;;6.93;;
39674;SDS011;27790;50.840;4.386;2023-06-14T03:47:43;14.77;;;7.65;;
39674;SDS011;27790;50.840;4.386;2023-06-14T03:50:09;11.38;;;7.00;;
39674;SDS011;27790;50.840;4.386;2023-06-14T03:52:35;8.63;;;7.45;;
39674;SDS011;27790;50.840;4.386;2023-06-14T03:55:01;14.32;;;6.97;;
39674;SDS011;27790;50.840;4.386;2023-06-14T03:57:27;13.40;;;7.20;;
39674;SDS011;27790;50.840;4.386;2023-06-14T03:59:54;12.60;;;7.40;;
39674;SDS011;27790;50.840;4.386;2023-06-14T04:02:20;9.20;;;6.30;;
39674;SDS011;27790;50.840;4.386;2023-06-14T04:04:46;9.95;;;7.68;;
39674;SDS011;27790;50.840;4.386;2023-06-14T04:07:13;13.85;;;8.68;;
39674;SDS011;27790;50.840;4.386;2023-06-14T04:09:40;9.73;;;7.25;;
39674;SDS011;27790;50.840;4.386;2023-06-14T04:12:06;17.15;;;7.18;;
39674;SDS011;27790;50.840;4.386;2023-06-14T04:14:36;10.23;;;7.05;;
39674;SDS011;27790;50.840;4.386;2023-06-14T04:17:02;14.55;;;7.22;;
39674;SDS011;27790;50.840;4.386;2023-06-14T04:19:28;12.43;;;7.38;;
39674;SDS011;27790;50.840;4.386;2023-06-14T04:21:54;9.43;;;7.72;;
39674;SDS011;27790;50.840;4.386;2023-06-14T04:24:20;10.43;;;6.80;;
39674;SDS011;27790;50.840;4.386;2023-06-14T04:26:45;11.00;;;7.05;;
39674;SDS011;27790;50.840;4.386;2023-06-14T04:29:13;18.13;;;8.07;;
39674;SDS011;27790;50.840;4.386;2023-06-14T04:31:41;11.88;;;7.32;;
39674;SDS011;27790;50.840;4.386;2023-06-14T04:34:07;12.43;;;7.43;;
39674;SDS011;27790;50.840;4.386;2023-06-14T04:36:33;11.88;;;7.15;;
39674;SDS011;27790;50.840;4.386;2023-06-14T04:39:01;13.85;;;7.32;;
39674;SDS011;27790;50.840;4.386;2023-06-14T04:41:28;10.57;;;7.03;;
39674;SDS011;27790;50.840;4.386;2023-06-14T04:43:56;13.55;;;7.95;;
39674;SDS011;27790;50.840;4.386;2023-06-14T04:46:26;10.90;;;7.20;;
39674;SDS011;27790;50.840;4.386;2023-06-14T04:48:55;11.60;;;6.95;;
39674;SDS011;27790;50.840;4.386;2023-06-14T04:51:21;11.85;;;7.78;;
39674;SDS011;27790;50.840;4.386;2023-06-14T04:53:54;11.82;;;8.00;;
39674;SDS011;27790;50.840;4.386;2023-06-14T04:56:22;10.70;;;7.10;;
39674;SDS011;27790;50.840;4.386;2023-06-14T04:58:48;8.35;;;6.95;;
39674;SDS011;27790;50.840;4.386;2023-06-14T05:01:14;11.68;;;7.45;;
39674;SDS011;27790;50.840;4.386;2023-06-14T05:03:39;8.20;;;7.35;;
39674;SDS011;27790;50.840;4.386;2023-06-14T05:06:06;14.45;;;7.88;;
39674;SDS011;27790;50.840;4.386;2023-06-14T05:08:31;10.82;;;7.45;;
39674;SDS011;27790;50.840;4.386;2023-06-14T05:10:57;8.68;;;6.82;;
39674;SDS011;27790;50.840;4.386;2023-06-14T05:13:23;14.95;;;8.18;;
39674;SDS011;27790;50.840;4.386;2023-06-14T05:15:48;11.48;;;8.38;;
39674;SDS011;27790;50.840;4.386;2023-06-14T05:18:14;15.93;;;8.20;;
39674;SDS011;27790;50.840;4.386;2023-06-14T05:20:40;10.82;;;8.10;;
39674;SDS011;27790;50.840;4.386;2023-06-14T05:23:09;14.15;;;8.00;;
39674;SDS011;27790;50.840;4.386;2023-06-14T05:25:43;12.43;;;7.90;;
39674;SDS011;27790;50.840;4.386;2023-06-14T05:28:10;12.95;;;8.95;;
39674;SDS011;27790;50.840;4.386;2023-06-14T05:30:37;18.50;;;8.02;;
39674;SDS011;27790;50.840;4.386;2023-06-14T05:33:03;12.57;;;8.05;;
39674;SDS011;27790;50.840;4.386;2023-06-14T05:35:29;17.38;;;8.90;;
39674;SDS011;27790;50.840;4.386;2023-06-14T05:37:54;16.77;;;8.90;;
39674;SDS011;27790;50.840;4.386;2023-06-14T05:40:20;13.32;;;8.50;;
39674;SDS011;27790;50.840;4.386;2023-06-14T05:42:45;12.30;;;8.70;;
39674;SDS011;27790;50.840;4.386;2023-06-14T05:45:11;9.20;;;7.03;;
39674;SDS011;27790;50.840;4.386;2023-06-14T05:47:37;12.80;;;7.97;;
39674;SDS011;27790;50.840;4.386;2023-06-14T05:50:02;15.18;;;8.55;;
39674;SDS011;27790;50.840;4.386;2023-06-14T05:52:28;16.95;;;8.23;;
39674;SDS011;27790;50.840;4.386;2023-06-14T05:54:54;11.10;;;7.93;;
39674;SDS011;27790;50.840;4.386;2023-06-14T05:57:20;18.00;;;8.52;;
39674;SDS011;27790;50.840;4.386;2023-06-14T05:59:46;11.02;;;8.35;;
39674;SDS011;27790;50.840;4.386;2023-06-14T06:02:11;19.65;;;8.18;;
39674;SDS011;27790;50.840;4.386;2023-06-14T06:04:37;12.32;;;8.30;;
39674;SDS011;27790;50.840;4.386;2023-06-14T06:07:03;18.52;;;8.00;;
39674;SDS011;27790;50.840;4.386;2023-06-14T06:09:29;16.00;;;8.15;;
39674;SDS011;27790;50.840;4.386;2023-06-14T06:11:55;13.98;;;8.02;;
39674;SDS011;27790;50.840;4.386;2023-06-14T06:14:20;17.52;;;7.95;;
39674;SDS011;27790;50.840;4.386;2023-06-14T06:16:46;16.67;;;7.75;;
39674;SDS011;27790;50.840;4.386;2023-06-14T06:19:14;15.70;;;8.35;;
39674;SDS011;27790;50.840;4.386;2023-06-14T06:21:40;15.48;;;7.47;;
39674;SDS011;27790;50.840;4.386;2023-06-14T06:24:08;14.43;;;7.68;;
39674;SDS011;27790;50.840;4.386;2023-06-14T06:26:34;9.38;;;7.40;;
39674;SDS011;27790;50.840;4.386;2023-06-14T06:29:00;13.55;;;7.28;;
39674;SDS011;27790;50.840;4.386;2023-06-14T06:31:25;9.75;;;7.88;;
39674;SDS011;27790;50.840;4.386;2023-06-14T06:33:52;13.98;;;7.85;;
39674;SDS011;27790;50.840;4.386;2023-06-14T06:36:20;8.35;;;7.53;;
39674;SDS011;27790;50.840;4.386;2023-06-14T06:38:47;18.10;;;7.85;;
39674;SDS011;27790;50.840;4.386;2023-06-14T06:41:13;11.75;;;7.78;;
39674;SDS011;27790;50.840;4.386;2023-06-14T06:43:38;12.02;;;8.02;;
39674;SDS011;27790;50.840;4.386;2023-06-14T06:46:04;10.40;;;7.20;;
39674;SDS011;27790;50.840;4.386;2023-06-14T06:48:30;14.02;;;7.95;;
39674;SDS011;27790;50.840;4.386;2023-06-14T06:50:55;14.02;;;7.00;;
39674;SDS011;27790;50.840;4.386;2023-06-14T06:53:21;14.73;;;7.45;;
39674;SDS011;27790;50.840;4.386;2023-06-14T06:55:50;16.60;;;7.45;;
39674;SDS011;27790;50.840;4.386;2023-06-14T06:58:16;8.02;;;7.05;;
39674;SDS011;27790;50.840;4.386;2023-06-14T07:00:41;15.77;;;7.93;;
39674;SDS011;27790;50.840;4.386;2023-06-14T07:03:07;9.48;;;6.95;;
39674;SDS011;27790;50.840;4.386;2023-06-14T07:05:33;11.00;;;7.53;;
39674;SDS011;27790;50.840;4.386;2023-06-14T07:07:58;7.70;;;6.82;;
39674;SDS011;27790;50.840;4.386;2023-06-14T07:10:24;9.75;;;6.78;;
39674;SDS011;27790;50.840;4.386;2023-06-14T07:12:50;9.93;;;6.75;;
39674;SDS011;27790;50.840;4.386;2023-06-14T07:15:16;9.95;;;7.18;;
39674;SDS011;27790;50.840;4.386;2023-06-14T07:17:42;9.10;;;7.07;;
39674;SDS011;27790;50.840;4.386;2023-06-14T07:20:08;8.52;;;6.55;;
39674;SDS011;27790;50.840;4.386;2023-06-14T07:22:40;8.32;;;6.78;;
39674;SDS011;27790;50.840;4.386;2023-06-14T07:25:10;14.95;;;7.53;;
39674;SDS011;27790;50.840;4.386;2023-06-14T07:27:43;8.90;;;6.25;;
39674;SDS011;27790;50.840;4.386;2023-06-14T07:30:25;14.43;;;7.75;;
39674;SDS011;27790;50.840;4.386;2023-06-14T07:32:52;13.13;;;7.25;;
39674;SDS011;27790;50.840;4.386;2023-06-14T07:35:18;12.18;;;6.53;;
39674;SDS011;27790;50.840;4.386;2023-06-14T07:37:44;9.27;;;7.30;;
39674;SDS011;27790;50.840;4.386;2023-06-14T07:40:11;13.48;;;7.18;;
39674;SDS011;27790;50.840;4.386;2023-06-14T07:42:38;17.77;;;7.35;;
39674;SDS011;27790;50.840;4.386;2023-06-14T07:45:04;11.70;;;6.03;;
39674;SDS011;27790;50.840;4.386;2023-06-14T07:47:33;10.00;;;6.50;;
39674;SDS011;27790;50.840;4.386;2023-06-14T07:49:58;8.00;;;6.50;;
39674;SDS011;27790;50.840;4.386;2023-06-14T07:52:24;12.82;;;7.32;;
39674;SDS011;27790;50.840;4.386;2023-06-14T07:54:52;9.57;;;6.68;;
39674;SDS011;27790;50.840;4.386;2023-06-14T07:57:17;16.60;;;6.25;;
39674;SDS011;27790;50.840;4.386;2023-06-14T07:59:45;10.30;;;6.30;;
39674;SDS011;27790;50.840;4.386;2023-06-14T08:02:11;9.02;;;5.97;;
39674;SDS011;27790;50.840;4.386;2023-06-14T08:04:36;11.45;;;6.55;;
39674;SDS011;27790;50.840;4.386;2023-06-14T08:07:03;9.05;;;6.78;;
39674;SDS011;27790;50.840;4.386;2023-06-14T08:09:28;12.48;;;6.95;;
39674;SDS011;27790;50.840;4.386;2023-06-14T08:11:54;8.57;;;5.97;;
39674;SDS011;27790;50.840;4.386;2023-06-14T08:14:21;9.30;;;5.65;;
39674;SDS011;27790;50.840;4.386;2023-06-14T08:16:46;9.63;;;5.97;;
39674;SDS011;27790;50.840;4.386;2023-06-14T08:19:12;15.27;;;7.07;;
39674;SDS011;27790;50.840;4.386;2023-06-14T08:21:37;10.38;;;6.75;;
39674;SDS011;27790;50.840;4.386;2023-06-14T08:24:03;14.23;;;7.22;;
39674;SDS011;27790;50.840;4.386;2023-06-14T08:26:29;8.05;;;7.20;;
39674;SDS011;27790;50.840;4.386;2023-06-14T08:28:56;11.88;;;6.60;;
39674;SDS011;27790;50.840;4.386;2023-06-14T08:31:22;12.75;;;6.28;;
39674;SDS011;27790;50.840;4.386;2023-06-14T08:33:49;9.52;;;6.45;;
39674;SDS011;27790;50.840;4.386;2023-06-14T08:36:15;9.80;;;6.32;;
39674;SDS011;27790;50.840;4.386;2023-06-14T08:38:44;14.18;;;6.75;;
39674;SDS011;27790;50.840;4.386;2023-06-14T08:41:09;13.07;;;6.28;;
39674;SDS011;27790;50.840;4.386;2023-06-14T08:43:38;12.38;;;7.13;;
39674;SDS011;27790;50.840;4.386;2023-06-14T08:46:04;17.15;;;7.93;;
39674;SDS011;27790;50.840;4.386;2023-06-14T08:48:33;14.80;;;7.07;;
39674;SDS011;27790;50.840;4.386;2023-06-14T08:51:00;11.15;;;7.45;;
39674;SDS011;27790;50.840;4.386;2023-06-14T08:53:32;14.05;;;6.72;;
39674;SDS011;27790;50.840;4.386;2023-06-14T08:56:02;10.05;;;6.55;;
39674;SDS011;27790;50.840;4.386;2023-06-14T08:58:30;10.90;;;6.43;;
39674;SDS011;27790;50.840;4.386;2023-06-14T09:00:57;8.57;;;6.47;;
39674;SDS011;27790;50.840;4.386;2023-06-14T09:03:23;11.32;;;6.00;;
39674;SDS011;27790;50.840;4.386;2023-06-14T09:05:55;11.27;;;6.72;;
39674;SDS011;27790;50.840;4.386;2023-06-14T09:08:24;16.55;;;7.13;;
39674;SDS011;27790;50.840;4.386;2023-06-14T09:10:53;9.32;;;6.90;;
39674;SDS011;27790;50.840;4.386;2023-06-14T09:13:20;8.52;;;6.85;;
39674;SDS011;27790;50.840;4.386;2023-06-14T09:15:45;10.70;;;7.60;;
39674;SDS011;27790;50.840;4.386;2023-06-14T09:18:11;13.60;;;7.28;;
39674;SDS011;27790;50.840;4.386;2023-06-14T09:20:37;10.23;;;7.45;;
39674;SDS011;27790;50.840;4.386;2023-06-14T09:23:02;11.60;;;7.05;;
39674;SDS011;27790;50.840;4.386;2023-06-14T09:25:30;13.60;;;7.28;;
39674;SDS011;27790;50.840;4.386;2023-06-14T09:27:56;10.57;;;6.65;;
39674;SDS011;27790;50.840;4.386;2023-06-14T09:30:21;9.02;;;6.85;;
39674;SDS011;27790;50.840;4.386;2023-06-14T09:32:47;12.95;;;6.38;;
39674;SDS011;27790;50.840;4.386;2023-06-14T09:35:12;12.15;;;6.50;;
39674;SDS011;27790;50.840;4.386;2023-06-14T09:37:43;12.68;;;7.15;;
39674;SDS011;27790;50.840;4.386;2023-06-14T09:40:09;8.57;;;7.22;;
39674;SDS011;27790;50.840;4.386;2023-06-14T09:42:35;13.50;;;6.90;;
39674;SDS011;27790;50.840;4.386;2023-06-14T09:45:02;7.95;;;6.95;;
39674;SDS011;27790;50.840;4.386;2023-06-14T09:47:29;11.73;;;7.00;;
39674;SDS011;27790;50.840;4.386;2023-06-14T09:49:55;10.00;;;6.85;;
39674;SDS011;27790;50.840;4.386;2023-06-14T09:52:21;11.65;;;6.10;;
39674;SDS011;27790;50.840;4.386;2023-06-14T09:54:51;9.82;;;6.45;;
39674;SDS011;27790;50.840;4.386;2023-06-14T09:57:23;12.75;;;6.13;;
39674;SDS011;27790;50.840;4.386;2023-06-14T09:59:52;9.65;;;6.05;;
39674;SDS011;27790;50.840;4.386;2023-06-14T10:02:27;10.38;;;5.78;;
39674;SDS011;27790;50.840;4.386;2023-06-14T10:05:03;8.13;;;5.60;;
39674;SDS011;27790;50.840;4.386;2023-06-14T10:07:41;6.45;;;5.43;;
39674;SDS011;27790;50.840;4.386;2023-06-14T10:10:09;7.40;;;5.75;;
39674;SDS011;27790;50.840;4.386;2023-06-14T10:12:35;9.43;;;5.90;;
39674;SDS011;27790;50.840;4.386;2023-06-14T10:15:01;7.68;;;5.93;;
39674;SDS011;27790;50.840;4.386;2023-06-14T10:17:32;10.32;;;5.82;;
39674;SDS011;27790;50.840;4.386;2023-06-14T10:25:42;9.27;;;5.35;;
39674;SDS011;27790;50.840;4.386;2023-06-14T10:33:34;7.65;;;5.40;;
39674;SDS011;27790;50.840;4.386;2023-06-14T10:36:42;13.50;;;5.00;;
39674;SDS011;27790;50.840;4.386;2023-06-14T10:39:07;8.90;;;5.68;;
39674;SDS011;27790;50.840;4.386;2023-06-14T10:41:38;8.45;;;5.18;;
39674;SDS011;27790;50.840;4.386;2023-06-14T10:49:18;15.27;;;5.30;;
39674;SDS011;27790;50.840;4.386;2023-06-14T10:51:45;16.33;;;6.43;;
39674;SDS011;27790;50.840;4.386;2023-06-14T10:54:20;11.48;;;5.53;;
39674;SDS011;27790;50.840;4.386;2023-06-14T10:56:47;14.82;;;5.95;;
39674;SDS011;27790;50.840;4.386;2023-06-14T10:59:17;13.38;;;5.85;;
39674;SDS011;27790;50.840;4.386;2023-06-14T11:04:39;8.93;;;5.13;;
39674;SDS011;27790;50.840;4.386;2023-06-14T11:07:58;9.57;;;5.32;;
39674;SDS011;27790;50.840;4.386;2023-06-14T11:12:55;7.65;;;4.93;;
39674;SDS011;27790;50.840;4.386;2023-06-14T11:15:27;6.93;;;5.13;;
39674;SDS011;27790;50.840;4.386;2023-06-14T11:17:54;12.90;;;4.97;;
39674;SDS011;27790;50.840;4.386;2023-06-14T11:20:24;6.38;;;4.70;;
39674;SDS011;27790;50.840;4.386;2023-06-14T11:22:51;6.90;;;4.53;;
39674;SDS011;27790;50.840;4.386;2023-06-14T11:25:17;10.60;;;5.35;;
39674;SDS011;27790;50.840;4.386;2023-06-14T11:27:43;12.95;;;5.50;;
39674;SDS011;27790;50.840;4.386;2023-06-14T11:30:10;15.18;;;5.50;;
39674;SDS011;27790;50.840;4.386;2023-06-14T11:32:37;5.13;;;4.60;;
39674;SDS011;27790;50.840;4.386;2023-06-14T11:35:04;8.80;;;4.38;;
39674;SDS011;27790;50.840;4.386;2023-06-14T11:37:30;7.22;;;4.45;;
39674;SDS011;27790;50.840;4.386;2023-06-14T11:39:59;8.40;;;4.85;;
39674;SDS011;27790;50.840;4.386;2023-06-14T11:42:29;9.40;;;5.03;;
39674;SDS011;27790;50.840;4.386;2023-06-14T11:44:55;7.05;;;4.60;;
39674;SDS011;27790;50.840;4.386;2023-06-14T11:47:21;10.02;;;5.05;;
39674;SDS011;27790;50.840;4.386;2023-06-14T11:49:47;7.55;;;4.28;;
39674;SDS011;27790;50.840;4.386;2023-06-14T11:52:13;6.03;;;4.40;;
39674;SDS011;27790;50.840;4.386;2023-06-14T11:54:39;9.05;;;5.07;;
39674;SDS011;27790;50.840;4.386;2023-06-14T11:57:07;10.82;;;4.97;;
39674;SDS011;27790;50.840;4.386;2023-06-14T11:59:39;8.88;;;4.22;;
39674;SDS011;27790;50.840;4.386;2023-06-14T12:02:05;9.50;;;4.60;;
39674;SDS011;27790;50.840;4.386;2023-06-14T12:04:32;13.93;;;4.97;;
39674;SDS011;27790;50.840;4.386;2023-06-14T12:12:22;9.90;;;4.20;;
39674;SDS011;27790;50.840;4.386;2023-06-14T12:14:50;9.77;;;4.38;;
39674;SDS011;27790;50.840;4.386;2023-06-14T12:17:16;6.63;;;4.50;;
39674;SDS011;27790;50.840;4.386;2023-06-14T12:19:44;10.25;;;4.18;;
39674;SDS011;27790;50.840;4.386;2023-06-14T12:22:11;9.73;;;3.85;;
39674;SDS011;27790;50.840;4.386;2023-06-14T12:24:38;7.97;;;4.70;;
39674;SDS011;27790;50.840;4.386;2023-06-14T12:27:04;13.77;;;4.22;;
39674;SDS011;27790;50.840;4.386;2023-06-14T12:29:30;9.80;;;4.28;;
39674;SDS011;27790;50.840;4.386;2023-06-14T12:31:57;10.45;;;4.47;;
39674;SDS011;27790;50.840;4.386;2023-06-14T12:34:23;13.70;;;4.53;;
39674;SDS011;27790;50.840;4.386;2023-06-14T12:36:50;7.97;;;3.97;;
39674;SDS011;27790;50.840;4.386;2023-06-14T12:39:16;7.40;;;4.40;;
39674;SDS011;27790;50.840;4.386;2023-06-14T12:41:42;5.40;;;4.32;;
39674;SDS011;27790;50.840;4.386;2023-06-14T12:44:07;6.32;;;4.70;;
39674;SDS011;27790;50.840;4.386;2023-06-14T12:46:33;7.18;;;4.28;;
39674;SDS011;27790;50.840;4.386;2023-06-14T12:49:00;6.53;;;4.13;;
39674;SDS011;27790;50.840;4.386;2023-06-14T12:51:26;12.95;;;4.50;;
39674;SDS011;27790;50.840;4.386;2023-06-14T12:53:51;6.53;;;4.40;;
39674;SDS011;27790;50.840;4.386;2023-06-14T12:56:17;12.30;;;4.15;;
39674;SDS011;27790;50.840;4.386;2023-06-14T12:58:43;7.28;;;3.67;;
39674;SDS011;27790;50.840;4.386;2023-06-14T13:01:08;7.68;;;3.90;;
39674;SDS011;27790;50.840;4.386;2023-06-14T13:03:34;6.38;;;3.95;;
39674;SDS011;27790;50.840;4.386;2023-06-14T13:06:00;8.50;;;4.47;;
39674;SDS011;27790;50.840;4.386;2023-06-14T13:08:26;5.80;;;3.95;;
39674;SDS011;27790;50.840;4.386;2023-06-14T13:10:53;16.92;;;5.00;;
39674;SDS011;27790;50.840;4.386;2023-06-14T13:13:18;9.85;;;4.18;;
39674;SDS011;27790;50.840;4.386;2023-06-14T13:15:44;8.20;;;3.78;;
39674;SDS011;27790;50.840;4.386;2023-06-14T13:18:11;10.13;;;3.75;;
39674;SDS011;27790;50.840;4.386;2023-06-14T13:20:38;10.07;;;3.50;;
39674;SDS011;27790;50.840;4.386;2023-06-14T13:23:04;8.77;;;3.78;;
39674;SDS011;27790;50.840;4.386;2023-06-14T13:25:32;12.32;;;3.67;;
39674;SDS011;27790;50.840;4.386;2023-06-14T13:28:03;4.63;;;3.47;;
39674;SDS011;27790;50.840;4.386;2023-06-14T13:30:30;8.60;;;3.70;;
39674;SDS011;27790;50.840;4.386;2023-06-14T13:32:56;6.60;;;3.72;;
39674;SDS011;27790;50.840;4.386;2023-06-14T13:35:23;7.25;;;3.75;;
39674;SDS011;27790;50.840;4.386;2023-06-14T13:37:49;6.15;;;3.28;;
39674;SDS011;27790;50.840;4.386;2023-06-14T13:40:15;9.65;;;3.20;;
39674;SDS011;27790;50.840;4.386;2023-06-14T13:42:41;3.80;;;3.50;;
39674;SDS011;27790;50.840;4.386;2023-06-14T13:45:07;11.20;;;2.85;;
39674;SDS011;27790;50.840;4.386;2023-06-14T13:47:33;9.35;;;3.35;;
39674;SDS011;27790;50.840;4.386;2023-06-14T13:49:59;6.60;;;3.78;;
39674;SDS011;27790;50.840;4.386;2023-06-14T13:52:25;9.77;;;3.72;;
39674;SDS011;27790;50.840;4.386;2023-06-14T13:54:51;6.70;;;3.15;;
39674;SDS011;27790;50.840;4.386;2023-06-14T13:57:17;5.18;;;3.35;;
39674;SDS011;27790;50.840;4.386;2023-06-14T13:59:43;8.00;;;3.60;;
39674;SDS011;27790;50.840;4.386;2023-06-14T14:02:12;6.18;;;3.00;;
39674;SDS011;27790;50.840;4.386;2023-06-14T14:04:38;7.63;;;3.13;;
39674;SDS011;27790;50.840;4.386;2023-06-14T14:07:05;3.88;;;2.67;;
39674;SDS011;27790;50.840;4.386;2023-06-14T14:09:34;8.60;;;2.35;;
39674;SDS011;27790;50.840;4.386;2023-06-14T14:12:00;4.78;;;2.55;;
39674;SDS011;27790;50.840;4.386;2023-06-14T14:14:30;4.70;;;2.65;;
39674;SDS011;27790;50.840;4.386;2023-06-14T14:16:58;5.18;;;2.20;;
39674;SDS011;27790;50.840;4.386;2023-06-14T14:19:24;6.82;;;2.75;;
39674;SDS011;27790;50.840;4.386;2023-06-14T14:21:50;6.50;;;2.83;;
39674;SDS011;27790;50.840;4.386;2023-06-14T14:24:15;8.30;;;2.70;;
39674;SDS011;27790;50.840;4.386;2023-06-14T14:26:41;2.15;;;1.98;;
39674;SDS011;27790;50.840;4.386;2023-06-14T14:29:07;5.43;;;2.25;;
39674;SDS011;27790;50.840;4.386;2023-06-14T14:31:33;3.90;;;2.00;;
39674;SDS011;27790;50.840;4.386;2023-06-14T14:33:59;2.90;;;1.77;;
39674;SDS011;27790;50.840;4.386;2023-06-14T14:36:25;6.68;;;1.95;;
39674;SDS011;27790;50.840;4.386;2023-06-14T14:38:51;6.03;;;1.88;;
39674;SDS011;27790;50.840;4.386;2023-06-14T14:41:16;2.05;;;1.83;;
39674;SDS011;27790;50.840;4.386;2023-06-14T14:43:42;5.80;;;2.05;;
39674;SDS011;27790;50.840;4.386;2023-06-14T14:46:08;9.57;;;1.98;;
39674;SDS011;27790;50.840;4.386;2023-06-14T14:48:34;11.63;;;1.65;;
39674;SDS011;27790;50.840;4.386;2023-06-14T14:51:00;7.20;;;1.70;;
39674;SDS011;27790;50.840;4.386;2023-06-14T14:53:25;6.57;;;2.00;;
39674;SDS011;27790;50.840;4.386;2023-06-14T14:55:51;4.03;;;1.80;;
39674;SDS011;27790;50.840;4.386;2023-06-14T14:58:16;1.98;;;1.77;;
39674;SDS011;27790;50.840;4.386;2023-06-14T15:00:43;1.83;;;1.30;;
39674;SDS011;27790;50.840;4.386;2023-06-14T15:03:09;6.03;;;2.15;;
39674;SDS011;27790;50.840;4.386;2023-06-14T15:05:35;8.93;;;1.80;;
39674;SDS011;27790;50.840;4.386;2023-06-14T15:08:02;4.05;;;1.80;;
39674;SDS011;27790;50.840;4.386;2023-06-14T15:10:28;2.20;;;1.85;;
39674;SDS011;27790;50.840;4.386;2023-06-14T15:12:54;6.88;;;1.38;;
39674;SDS011;27790;50.840;4.386;2023-06-14T15:15:19;2.50;;;2.10;;